createdAt,value
2022-09-26T00:00:37.277Z,6.68
2022-09-26T00:04:58.961Z,6.56
2022-09-26T00:09:00.835Z,6.57
2022-09-26T00:13:02.558Z,6.67
2022-09-26T00:17:04.565Z,6.63
2022-09-26T00:21:09.109Z,6.44
2022-09-26T00:25:11.028Z,6.44
2022-09-26T00:29:14.335Z,6.42
2022-09-26T00:33:17.036Z,6.49
2022-09-26T00:37:18.687Z,6.54
2022-09-26T00:41:22.407Z,6.58
2022-09-26T00:45:30.054Z,6.62
2022-09-26T00:49:38.537Z,6.65
2022-09-26T00:53:45.932Z,6.73
2022-09-26T00:57:53.812Z,6.79
2022-09-26T01:01:58.703Z,6.85
2022-09-26T01:06:01.428Z,6.88
2022-09-26T01:10:06.040Z,6.89
2022-09-26T01:14:12.321Z,6.90
2022-09-26T01:18:14.261Z,6.91
2022-09-26T01:23:03.029Z,6.90
2022-09-26T01:27:39.920Z,6.85
2022-09-26T01:32:26.472Z,6.84
2022-09-26T01:37:17.298Z,6.86
2022-09-26T01:41:48.354Z,6.95
2022-09-26T01:45:59.042Z,7.04
2022-09-26T01:50:16.364Z,7.12
2022-09-26T01:54:24.036Z,7.15
2022-09-26T01:58:35.979Z,7.10
2022-09-26T02:02:42.348Z,7.14
2022-09-26T02:06:52.888Z,7.14
2022-09-26T02:11:17.197Z,7.14
2022-09-26T02:15:21.257Z,7.13
2022-09-26T02:19:29.296Z,7.19
2022-09-26T02:23:31.305Z,7.08
2022-09-26T02:27:33.204Z,7.17
2022-09-26T02:31:42.971Z,7.12
2022-09-26T02:35:57.439Z,7.12
2022-09-26T02:40:02.611Z,7.12
2022-09-26T02:44:32.164Z,7.05
2022-09-26T02:48:52.982Z,7.08
2022-09-26T02:53:06.945Z,7.01
2022-09-26T02:57:45.752Z,7.07
2022-09-26T03:02:21.662Z,6.93
2022-09-26T03:06:46.602Z,6.91
2022-09-26T03:10:50.115Z,6.90
2022-09-26T03:14:58.460Z,6.77
2022-09-26T03:19:09.491Z,6.74
2022-09-26T03:23:11.907Z,6.66
2022-09-26T03:27:14.769Z,6.74
2022-09-26T03:31:17.104Z,6.69
2022-09-26T03:35:26.368Z,6.69
2022-09-26T03:39:28.267Z,6.67
2022-09-26T03:43:43.664Z,6.72
2022-09-26T03:47:45.727Z,6.74
2022-09-26T03:51:48.006Z,6.59
2022-09-26T03:55:50.239Z,6.66
2022-09-26T03:59:51.997Z,6.68
2022-09-26T04:03:56.245Z,6.75
2022-09-26T04:07:59.925Z,6.75
2022-09-26T04:12:01.878Z,6.67
2022-09-26T04:16:05.881Z,6.77
2022-09-26T04:20:09.679Z,6.72
2022-09-26T04:24:16.653Z,6.65
2022-09-26T04:28:18.799Z,6.68
2022-09-26T04:32:20.631Z,6.71
2022-09-26T04:36:59.337Z,6.68
2022-09-26T04:41:05.664Z,6.69
2022-09-26T04:45:08.401Z,6.73
2022-09-26T04:49:10.303Z,6.76
2022-09-26T04:53:12.271Z,6.71
2022-09-26T04:57:20.956Z,6.68
2022-09-26T05:01:23.249Z,6.67
2022-09-26T05:05:36.816Z,6.55
2022-09-26T05:09:40.017Z,6.74
2022-09-26T05:13:53.066Z,6.80
2022-09-26T05:17:59.921Z,6.71
2022-09-26T05:22:04.606Z,6.85
2022-09-26T05:26:20.044Z,6.81
2022-09-26T05:30:21.849Z,6.86
2022-09-26T05:34:26.066Z,6.92
2022-09-26T05:38:28.507Z,7.00
2022-09-26T05:42:30.814Z,7.01
2022-09-26T05:46:34.809Z,7.07
2022-09-26T05:50:44.098Z,7.18
2022-09-26T05:54:45.898Z,7.11
2022-09-26T05:59:06.485Z,7.26
2022-09-26T06:03:27.874Z,7.25
2022-09-26T06:07:43.077Z,7.50
2022-09-26T06:11:49.883Z,7.43
2022-09-26T06:15:52.639Z,7.51
2022-09-26T06:19:55.030Z,7.51
2022-09-26T06:23:57.052Z,7.61
2022-09-26T06:28:00.845Z,7.63
2022-09-26T06:32:04.965Z,7.84
2022-09-26T06:36:27.521Z,7.90
2022-09-26T06:40:29.733Z,8.03
2022-09-26T06:44:31.759Z,8.08
2022-09-26T06:48:50.820Z,8.15
2022-09-26T06:53:11.464Z,8.32
2022-09-26T06:57:15.325Z,8.37
2022-09-26T07:01:18.559Z,8.52
2022-09-26T07:05:31.176Z,8.58
2022-09-26T07:09:33.736Z,8.68
2022-09-26T07:13:47.723Z,8.90
2022-09-26T07:17:49.488Z,8.91
2022-09-26T07:22:06.692Z,9.03
2022-09-26T07:26:15.940Z,9.10
2022-09-26T07:30:19.413Z,9.27
2022-09-26T07:34:32.147Z,9.30
2022-09-26T07:38:34.164Z,9.38
2022-09-26T07:42:37.904Z,9.50
2022-09-26T07:46:58.743Z,9.57
2022-09-26T07:51:03.568Z,9.65
2022-09-26T07:55:24.590Z,9.67
2022-09-26T07:59:44.120Z,9.76
2022-09-26T08:04:06.362Z,9.87
2022-09-26T08:08:11.838Z,9.94
2022-09-26T08:12:51.970Z,10.18
2022-09-26T08:17:14.400Z,10.33
2022-09-26T08:21:16.732Z,10.37
2022-09-26T08:25:18.641Z,10.55
2022-09-26T08:29:27.599Z,10.53
2022-09-26T08:33:35.343Z,10.84
2022-09-26T08:37:37.316Z,11.01
2022-09-26T08:42:15.454Z,11.12
2022-09-26T08:46:55.086Z,11.41
2022-09-26T08:51:30.081Z,11.71
2022-09-26T08:55:39.957Z,11.83
2022-09-26T08:59:44.013Z,12.03
2022-09-26T09:04:18.346Z,12.21
2022-09-26T09:08:25.264Z,12.42
2022-09-26T09:13:05.376Z,12.52
2022-09-26T09:17:48.235Z,12.91
2022-09-26T09:22:30.592Z,13.14
2022-09-26T09:31:43.027Z,13.57
2022-09-26T09:36:18.733Z,13.85
2022-09-26T09:40:58.095Z,14.24
2022-09-26T09:45:09.450Z,14.38
2022-09-26T09:49:23.449Z,14.77
2022-09-26T09:53:28.152Z,14.89
2022-09-26T09:57:57.826Z,15.01
2022-09-26T10:02:13.376Z,15.39
2022-09-26T10:06:44.164Z,15.35
2022-09-26T10:10:59.011Z,15.37
2022-09-26T10:15:24.168Z,15.67
2022-09-26T10:19:45.196Z,16.15
2022-09-26T10:23:50.594Z,16.05
2022-09-26T10:28:24.766Z,16.32
2022-09-26T10:32:30.465Z,16.54
2022-09-26T10:36:52.947Z,16.65
2022-09-26T10:41:01.365Z,16.83
2022-09-26T10:45:15.921Z,16.94
2022-09-26T10:49:48.414Z,17.27
2022-09-26T10:54:43.950Z,17.52
2022-09-26T10:58:47.140Z,17.38
2022-09-26T11:02:52.302Z,17.75
2022-09-26T11:06:54.442Z,17.77
2022-09-26T11:11:12.643Z,17.81
2022-09-26T11:15:16.219Z,17.50
2022-09-26T11:19:28.153Z,17.76
2022-09-26T11:23:50.843Z,18.02
2022-09-26T11:28:14.974Z,17.89
2022-09-26T11:32:47.345Z,17.86
2022-09-26T11:37:45.321Z,18.14
2022-09-26T11:42:13.765Z,18.14
2022-09-26T11:46:47.540Z,18.44
2022-09-26T11:51:19.927Z,18.45
2022-09-26T11:55:45.220Z,18.66
2022-09-26T12:00:02.157Z,18.39
2022-09-26T12:04:21.624Z,18.50
2022-09-26T12:08:38.885Z,18.53
2022-09-26T12:13:13.674Z,18.61
2022-09-26T12:17:53.686Z,18.71
2022-09-26T12:22:42.066Z,18.86
2022-09-26T12:26:55.163Z,18.89
2022-09-26T12:31:00.503Z,18.72
2022-09-26T12:35:28.028Z,18.96
2022-09-26T12:39:49.515Z,19.07
2022-09-26T12:44:15.837Z,19.00
2022-09-26T12:48:29.699Z,19.05
2022-09-26T12:52:55.322Z,19.25
2022-09-26T12:57:09.356Z,19.23
2022-09-26T13:01:46.760Z,19.18
2022-09-26T13:06:11.594Z,19.09
2022-09-26T13:10:28.763Z,19.04
2022-09-26T13:14:57.308Z,19.23
2022-09-26T13:19:05.721Z,18.95
2022-09-26T13:23:26.349Z,19.13
2022-09-26T13:27:36.225Z,19.35
2022-09-26T13:32:03.151Z,19.47
2022-09-26T13:36:08.376Z,19.76
2022-09-26T13:40:33.163Z,19.58
2022-09-26T13:44:49.073Z,19.43
2022-09-26T13:49:15.227Z,19.40
2022-09-26T13:53:32.378Z,19.27
2022-09-26T13:57:45.701Z,19.37
2022-09-26T14:02:23.351Z,19.10
2022-09-26T14:06:29.094Z,19.34
2022-09-26T14:10:35.904Z,19.39
2022-09-26T14:14:42.865Z,19.50
2022-09-26T14:18:55.863Z,19.15
2022-09-26T14:22:58.324Z,19.42
2022-09-26T14:27:11.214Z,19.37
2022-09-26T14:31:25.040Z,19.09
2022-09-26T14:35:30.145Z,19.01
2022-09-26T14:39:42.135Z,19.02
2022-09-26T14:43:45.102Z,18.79
2022-09-26T14:47:56.862Z,18.64
2022-09-26T14:52:01.488Z,18.12
2022-09-26T14:56:14.503Z,17.69
2022-09-26T15:00:42.710Z,17.24
2022-09-26T15:04:59.213Z,16.91
2022-09-26T15:09:09.239Z,16.60
2022-09-26T15:13:22.773Z,16.31
2022-09-26T15:17:31.203Z,16.05
2022-09-26T15:21:51.770Z,15.75
2022-09-26T15:25:57.501Z,15.49
2022-09-26T15:30:07.155Z,15.39
2022-09-26T15:34:19.376Z,15.20
2022-09-26T15:38:23.880Z,15.06
2022-09-26T15:42:49.079Z,14.99
2022-09-26T15:46:51.499Z,14.90
2022-09-26T15:51:28.925Z,14.81
2022-09-26T15:55:34.223Z,14.74
2022-09-26T15:59:41.636Z,14.62
2022-09-26T16:03:52.605Z,14.56
2022-09-26T16:07:55.186Z,14.44
2022-09-26T16:12:00.579Z,14.33
2022-09-26T16:16:07.874Z,14.21
2022-09-26T16:20:09.557Z,14.07
2022-09-26T16:24:34.336Z,13.98
2022-09-26T16:28:42.558Z,13.85
2022-09-26T16:32:44.493Z,13.74
2022-09-26T16:36:46.262Z,13.56
2022-09-26T16:40:58.480Z,13.29
2022-09-26T16:45:05.522Z,13.15
2022-09-26T16:49:28.792Z,12.94
2022-09-26T16:53:31.041Z,12.75
2022-09-26T16:57:37.102Z,12.62
2022-09-26T17:01:53.936Z,12.40
2022-09-26T17:05:57.556Z,12.21
2022-09-26T17:09:59.231Z,12.12
2022-09-26T17:14:01.102Z,12.11
2022-09-26T17:18:06.095Z,12.05
2022-09-26T17:22:15.939Z,11.69
2022-09-26T17:26:21.818Z,11.91
2022-09-26T17:30:23.718Z,11.85
2022-09-26T17:34:28.322Z,11.92
2022-09-26T17:38:30.288Z,11.88
2022-09-26T17:42:32.108Z,11.96
2022-09-26T17:46:37.435Z,12.02
2022-09-26T17:50:39.895Z,12.15
2022-09-26T17:54:42.570Z,12.21
2022-09-26T17:58:45.515Z,12.26
2022-09-26T18:02:53.141Z,12.32
2022-09-26T18:06:58.657Z,12.32
2022-09-26T18:11:03.905Z,12.35
2022-09-26T18:15:06.053Z,12.30
2022-09-26T18:19:11.685Z,12.31
2022-09-26T18:23:20.978Z,12.21
2022-09-26T18:27:23.228Z,12.09
2022-09-26T18:31:30.743Z,12.05
2022-09-26T18:35:32.642Z,12.14
2022-09-26T18:39:34.778Z,12.44
2022-09-26T18:43:42.271Z,12.73
2022-09-26T18:47:45.108Z,12.98
2022-09-26T18:51:47.229Z,13.17
2022-09-26T18:56:07.910Z,13.40
2022-09-26T19:00:10.651Z,13.45
2022-09-26T19:04:17.811Z,13.44
2022-09-26T19:08:35.537Z,13.53
2022-09-26T19:12:39.554Z,13.37
2022-09-26T19:16:43.312Z,13.15
2022-09-26T19:20:45.139Z,13.16
2022-09-26T19:24:54.107Z,12.97
2022-09-26T19:28:58.165Z,12.74
2022-09-26T19:33:00.146Z,12.75
2022-09-26T19:37:03.188Z,12.57
2022-09-26T19:41:05.777Z,12.57
2022-09-26T19:45:09.744Z,12.53
2022-09-26T19:49:17.905Z,12.37
2022-09-26T19:53:22.519Z,12.39
2022-09-26T19:57:24.671Z,12.36
2022-09-26T20:01:27.407Z,12.32
2022-09-26T20:05:29.557Z,12.26
2022-09-26T20:09:31.432Z,12.20
2022-09-26T20:13:53.774Z,12.19
2022-09-26T20:17:58.383Z,12.13
2022-09-26T20:22:02.514Z,11.95
2022-09-26T20:26:04.309Z,11.94
2022-09-26T20:30:25.787Z,11.76
2022-09-26T20:34:28.253Z,11.68
2022-09-26T20:38:33.673Z,11.56
2022-09-26T20:42:38.299Z,11.44
2022-09-26T20:46:48.527Z,11.42
2022-09-26T20:50:51.110Z,11.46
2022-09-26T20:54:55.198Z,11.39
2022-09-26T20:58:57.100Z,11.34
2022-09-26T21:02:58.996Z,11.22
2022-09-26T21:07:00.810Z,11.24
2022-09-26T21:11:02.908Z,11.26
2022-09-26T21:15:04.785Z,11.05
2022-09-26T21:19:09.407Z,10.82
2022-09-26T21:23:11.162Z,10.77
2022-09-26T21:27:13.349Z,10.64
2022-09-26T21:31:22.293Z,10.60
2022-09-26T21:35:30.715Z,10.48
2022-09-26T21:39:32.526Z,10.44
2022-09-26T21:43:38.173Z,10.48
2022-09-26T21:47:40.354Z,10.52
2022-09-26T21:51:44.374Z,10.40
2022-09-26T21:55:52.833Z,10.44
2022-09-26T21:59:55.788Z,10.39
2022-09-26T22:03:58.459Z,10.42
2022-09-26T22:08:00.552Z,10.37
2022-09-26T22:12:02.430Z,10.37
2022-09-26T22:16:09.093Z,10.45
2022-09-26T22:20:11.659Z,10.53
2022-09-26T22:24:13.619Z,10.44
2022-09-26T22:28:15.276Z,10.47
2022-09-26T22:32:17.121Z,10.61
2022-09-26T22:36:18.909Z,10.56
2022-09-26T22:40:20.754Z,10.59
2022-09-26T22:44:22.541Z,10.69
2022-09-26T22:48:24.478Z,10.70
2022-09-26T22:52:26.065Z,10.71
2022-09-26T22:56:27.865Z,10.82
2022-09-26T23:00:29.604Z,10.84
2022-09-26T23:04:46.820Z,10.88
2022-09-26T23:08:49.073Z,10.80
2022-09-26T23:12:51.145Z,10.82
2022-09-26T23:16:52.813Z,10.78
2022-09-26T23:20:54.644Z,10.84
2022-09-26T23:24:56.494Z,10.85
2022-09-26T23:28:59.292Z,10.82
2022-09-26T23:33:01.065Z,10.82
2022-09-26T23:37:02.930Z,10.88
2022-09-26T23:41:06.663Z,10.85
2022-09-26T23:45:08.912Z,10.89
2022-09-26T23:49:10.707Z,10.94
2022-09-26T23:53:13.774Z,10.93
2022-09-26T23:57:15.435Z,10.91
